Terminal Aerodrome Forecast
Issued by NWS La Crosse, WI

Home | Current Version | Previous Version | Text Only | Print | Product List | Glossary On
Versions: 1 2 3 4 5 6 7 8 9 10 11 12 13 14
000
FTUS43 KARX 261720
TAFRST
TAF
KRST 261720Z 2618/2718 26012G22KT P6SM BKN250
     FM262000 32015G24KT P6SM BKN100
     FM270200 31007KT P6SM SCT250
     FM271400 26012G20KT P6SM SCT100
     FM271600 30018G26KT P6SM FEW100=

USA.gov is the U.S. government's official web portal to all federal, state and local government web resources and services.